EDT,Max TemperatureF,Mean TemperatureF,Min TemperatureF,Max Dew PointF,MeanDew PointF,Min DewpointF,Max Humidity, Mean Humidity, Min Humidity, Max Sea Level PressureIn, Mean Sea Level PressureIn, Min Sea Level PressureIn, Max VisibilityMiles, Mean VisibilityMiles, Min VisibilityMiles, Max Wind SpeedMPH, Mean Wind SpeedMPH, Max Gust SpeedMPH,PrecipitationIn, CloudCover, Events, WindDirDegrees
2013-10-1,75,57,39,52,46,37,100,72,34,29.98,29.92,29.85,10,10,2,15,2,,0.00,0,,360
2013-10-2,78,62,46,55,51,45,100,72,39,29.91,29.84,29.78,10,10,5,13,2,17,0.00,0,,290
2013-10-3,73,58,44,48,44,39,93,60,33,30.07,30.02,29.91,10,10,10,10,4,,0.00,0,,284
2013-10-4,69,55,41,54,46,39,93,70,38,30.11,30.07,30.03,10,10,3,7,2,,0.00,1,,348
2013-10-5,60,52,44,46,42,39,93,63,45,30.16,30.12,30.09,10,10,10,7,4,,0.00,7,,65
2013-10-6,53,48,42,46,39,34,93,70,50,30.29,30.24,30.15,10,10,4,12,5,,0.09,7,,83
2013-10-7,68,58,48,64,55,46,100,93,82,30.21,29.98,29.77,10,4,1,20,6,33,0.24,8,,133
2013-10-8,60,48,37,55,39,30,93,63,34,30.39,30.14,29.83,10,10,0,20,7,28,0.03,1,,313
2013-10-9,62,46,30,43,35,28,93,72,39,30.49,30.43,30.37,10,10,10,10,2,,0.01,0,,159
2013-10-10,64,48,32,46,40,30,100,78,37,30.36,30.29,30.19,10,9,0,9,1,,0.00,1,,183
2013-10-11,68,55,42,52,45,39,93,77,46,30.19,30.17,30.14,10,10,2,9,2,,0.00,0,,5
2013-10-12,55,48,42,50,46,39,100,83,76,30.43,30.35,30.19,10,10,3,8,2,,0.00,6,,70
2013-10-13,55,52,48,46,45,43,87,77,63,30.48,30.43,30.39,10,10,10,7,2,,0.00,8,,189
2013-10-14,64,50,37,48,43,36,93,77,49,30.39,30.31,30.24,10,10,10,10,5,16,0.00,3,,175
2013-10-15,64,56,48,52,48,46,100,78,52,30.29,30.25,30.21,10,10,0,12,2,,0.00,7,,133
2013-10-16,60,55,50,52,48,41,94,80,51,30.21,30.08,29.90,10,9,1,9,2,,0.00,6,,158
2013-10-17,69,58,46,54,49,45,94,78,46,29.89,29.80,29.72,10,10,3,9,3,,0.00,4,,215
2013-10-18,66,57,48,54,46,37,100,73,42,29.84,29.69,29.59,10,9,2,17,5,23,0.28,5,,288
2013-10-19,62,48,35,46,40,32,100,70,37,29.93,29.86,29.75,10,10,9,12,4,16,0.00,1,,181
2013-10-20,60,48,37,48,36,27,93,60,27,29.95,29.77,29.66,10,10,5,18,6,30,0.00,2,,239
2013-10-21,60,45,30,45,35,27,93,70,39,30.08,30.02,29.96,10,10,10,8,2,,0.00,0,,181
2013-10-22,60,50,39,50,43,37,93,77,59,29.96,29.80,29.70,10,10,8,16,7,24,0.00,3,,194
2013-10-23,51,42,32,39,34,27,93,73,38,29.76,29.68,29.58,10,9,0,9,2,,0.00,3,,186
2013-10-24,50,39,28,34,27,21,93,61,35,29.81,29.69,29.60,10,10,10,16,4,25,0.00,3,,268
2013-10-25,46,37,28,32,26,21,87,61,40,30.08,29.95,29.81,10,10,10,14,4,23,0.00,4,,285
2013-10-26,48,36,24,34,26,19,93,65,40,30.09,29.99,29.85,10,10,10,16,3,24,0.00,5,,196
2013-10-27,53,42,30,36,30,19,87,59,38,30.00,29.84,29.77,10,10,10,14,7,20,0.00,5,,234
2013-10-28,53,40,26,34,26,21,93,65,41,30.34,30.11,29.99,10,10,10,21,5,31,0.00,3,,280
2013-10-29,46,32,19,25,18,10,93,61,25,30.44,30.39,30.33,10,10,10,7,2,,0.00,0,,261
2013-10-30,48,34,21,27,21,18,86,66,32,30.33,30.24,30.16,10,10,10,10,1,,0.00,2,,299
2013-10-31,57,40,23,55,32,19,100,87,75,30.23,30.07,29.76,10,7,1,13,1,17,0.25,5,,187